Time;durP1;ratioP1;P1;durP2;ratioP2;P2;SDS_P1;SDS_P2;PMS_P1;PMS_P2;Temp;Humidity;BMP_temperature;BMP_pressure;BME280_temperature;BME280_humidity;BME280_pressure;Samples;Min_cycle;Max_cycle;Signal;HPM_P1;HPM_P2
2022/06/21 00:00:15;;;;;;;2.33;1.40;;;;;;;12.21;70.84;100460.50;6191473;23;20005;-75
2022/06/21 00:02:41;;;;;;;3.33;1.40;;;;;;;12.18;70.80;100458.31;6164156;23;20008;-74
2022/06/21 00:05:20;;;;;;;1.98;1.10;;;;;;;12.17;71.26;100445.72;6165282;23;20120;-75
2022/06/21 00:07:45;;;;;;;2.60;1.10;;;;;;;12.19;71.11;100440.75;6193914;23;20124;-75
2022/06/21 00:10:17;;;;;;;1.27;1.10;;;;;;;12.17;71.25;100430.06;6164205;23;20005;-76
2022/06/21 00:12:44;;;;;;;1.77;1.17;;;;;;;12.16;70.92;100433.09;6191186;23;20028;-76
2022/06/21 00:15:10;;;;;;;1.80;0.95;;;;;;;12.20;71.04;100434.19;6163871;23;20009;-75
2022/06/21 00:17:36;;;;;;;1.40;1.00;;;;;;;12.21;71.35;100430.34;6164373;23;20112;-74
2022/06/21 00:20:05;;;;;;;1.65;0.88;;;;;;;12.21;70.87;100433.09;6190456;23;20012;-76
2022/06/21 00:22:30;;;;;;;1.98;0.90;;;;;;;12.21;71.11;100436.66;6162705;23;20013;-75
2022/06/21 00:24:56;;;;;;;3.58;1.20;;;;;;;12.16;71.64;100444.06;6162681;23;20040;-75
2022/06/21 00:27:22;;;;;;;4.82;1.10;;;;;;;12.17;71.32;100453.94;6137327;23;20001;-75
2022/06/21 00:29:47;;;;;;;5.50;1.20;;;;;;;12.08;71.85;100458.34;6162245;23;20034;-75
2022/06/21 00:32:20;;;;;;;4.85;1.58;;;;;;;11.95;72.36;100443.28;6162381;23;20013;-73
2022/06/21 00:34:53;;;;;;;2.13;1.42;;;;;;;11.82;72.92;100433.63;6160846;23;20027;-76
2022/06/21 00:37:34;;;;;;;;;;;;;;;;;;;;;
2022/06/21 00:40:00;;;;;;;6.05;1.60;;;;;;;11.79;72.86;100440.47;6164966;23;20084;-74
2022/06/21 00:42:30;;;;;;;2.05;1.00;;;;;;;11.77;72.94;100428.16;6135363;23;20021;-75
2022/06/21 00:45:11;;;;;;;5.55;1.48;;;;;;;11.67;73.07;100435.28;6160182;23;20005;-75
2022/06/21 00:47:50;;;;;;;1.88;1.33;;;;;;;11.55;73.31;100442.94;6186699;23;20001;-75
2022/06/21 00:50:16;;;;;;;1.95;1.10;;;;;;;11.43;73.92;100443.19;6189950;23;20029;-77
2022/06/21 00:52:47;;;;;;;3.40;1.48;;;;;;;11.24;73.42;100448.34;6188682;23;20054;-74
2022/06/21 00:55:34;;;;;;;2.40;1.40;;;;;;;11.17;73.47;100440.41;6162255;23;20043;-76
2022/06/21 00:58:00;;;;;;;3.20;1.60;;;;;;;11.08;73.78;100441.19;6189623;23;20005;-75
2022/06/21 01:00:46;;;;;;;3.88;1.38;;;;;;;11.08;73.87;100435.72;6192275;23;20061;-76
2022/06/21 01:03:26;;;;;;;4.68;1.70;;;;;;;11.02;73.50;100432.13;6164118;23;20001;-77
2022/06/21 01:05:56;;;;;;;2.55;1.27;;;;;;;10.92;73.63;100426.63;6164060;23;20015;-76
2022/06/21 01:08:28;;;;;;;3.28;1.35;;;;;;;10.88;73.70;100423.63;6191203;23;20035;-75
2022/06/21 01:11:01;;;;;;;2.33;1.45;;;;;;;10.88;74.17;100426.34;6190299;23;20025;-75
2022/06/21 01:13:33;;;;;;;3.25;1.70;;;;;;;10.84;74.13;100419.78;6175355;23;19997;-75
2022/06/21 01:15:59;;;;;;;2.97;1.10;;;;;;;10.80;74.28;100407.72;6191985;23;20008;-75
2022/06/21 01:18:26;;;;;;;2.22;1.02;;;;;;;10.79;74.44;100401.44;6165760;23;20056;-75
2022/06/21 01:20:56;;;;;;;1.50;1.13;;;;;;;10.80;74.15;100404.97;6190837;23;20075;-74
2022/06/21 01:23:37;;;;;;;1.05;0.90;;;;;;;10.69;74.04;100401.41;6190310;23;20001;-75
2022/06/21 01:26:31;;;;;;;5.78;1.60;;;;;;;10.73;74.29;100418.06;6190835;23;20008;-75
2022/06/21 01:28:57;;;;;;;6.78;2.45;;;;;;;10.67;74.76;100419.97;6164687;23;20013;-75
2022/06/21 01:31:37;;;;;;;;;;;;;;;;;;;;;
2022/06/21 01:34:05;;;;;;;5.38;1.63;;;;;;;10.64;74.73;100415.03;6190496;23;20025;-75
2022/06/21 01:36:36;;;;;;;3.75;1.92;;;;;;;10.60;75.05;100414.75;6167033;23;19989;-74
2022/06/21 01:39:20;;;;;;;2.25;1.38;;;;;;;10.60;75.27;100420.22;6166286;23;20012;-75
2022/06/21 01:41:52;;;;;;;2.92;1.52;;;;;;;10.52;75.37;100417.19;6190225;23;20017;-73
2022/06/21 01:44:31;;;;;;;2.45;1.50;;;;;;;10.49;75.68;100413.06;6166551;23;20005;-75
2022/06/21 01:47:00;;;;;;;2.25;1.38;;;;;;;10.42;76.35;100401.53;6190292;23;20537;-75
2022/06/21 01:49:37;;;;;;;3.70;1.77;;;;;;;10.46;76.60;100402.66;6140565;23;20016;-75
2022/06/21 01:52:11;;;;;;;3.80;1.58;;;;;;;10.41;77.26;100394.41;6191106;23;20012;-75
2022/06/21 01:54:44;;;;;;;2.53;1.52;;;;;;;10.36;77.05;100381.56;6192742;23;20008;-75
2022/06/21 01:57:15;;;;;;;1.45;1.27;;;;;;;10.40;76.64;100373.66;6165930;23;20016;-75
2022/06/21 01:59:51;;;;;;;2.00;1.15;;;;;;;10.39;76.86;100355.59;6189336;23;19997;-76
2022/06/21 02:02:34;;;;;;;3.95;1.60;;;;;;;10.30;76.96;100338.84;6190278;23;20009;-76
2022/06/21 02:05:14;;;;;;;1.85;1.40;;;;;;;10.35;77.16;100341.63;6164724;23;19997;-75
2022/06/21 02:07:49;;;;;;;2.30;1.27;;;;;;;10.43;77.11;100345.78;6162524;23;20005;-74
2022/06/21 02:10:33;;;;;;;1.77;1.23;;;;;;;10.44;77.00;100344.66;6165264;23;20704;-76
2022/06/21 02:13:08;;;;;;;2.28;1.13;;;;;;;10.42;77.31;100335.94;6163044;23;20001;-75
2022/06/21 02:16:08;;;;;;;2.55;1.50;;;;;;;10.42;77.48;100335.94;6163983;23;20005;-76
2022/06/21 02:18:39;;;;;;;2.28;1.35;;;;;;;10.46;77.13;100347.97;6189298;23;20323;-76
2022/06/21 02:21:34;;;;;;;;;;;;;;;;;;;;;
2022/06/21 02:24:01;;;;;;;5.15;1.77;;;;;;;10.36;77.93;100342.47;6191496;23;20013;-76
2022/06/21 02:26:30;;;;;;;6.57;2.40;;;;;;;10.42;78.38;100347.66;6163973;23;20001;-76
2022/06/21 02:28:57;;;;;;;6.10;2.15;;;;;;;10.35;78.10;100336.16;6164127;23;20012;-76
2022/06/21 02:31:25;;;;;;;2.38;1.67;;;;;;;10.29;78.35;100338.03;6190473;23;20016;-76
2022/06/21 02:33:53;;;;;;;4.07;1.50;;;;;;;10.21;78.23;100329.53;6162373;23;20005;-75
2022/06/21 02:36:32;;;;;;;1.55;1.27;;;;;;;10.18;78.15;100340.97;6189819;23;20081;-78
2022/06/21 02:39:13;;;;;;;3.00;1.27;;;;;;;10.10;77.85;100325.91;6161939;23;20071;-74
2022/06/21 02:41:42;;;;;;;1.15;1.00;;;;;;;10.14;77.80;100336.03;6162833;23;20020;-74
2022/06/21 02:44:25;;;;;;;4.15;1.90;;;;;;;10.13;78.19;100337.13;6187869;23;20092;-75
2022/06/21 02:46:59;;;;;;;1.88;1.30;;;;;;;10.08;77.97;100345.28;6186178;23;20367;-74
2022/06/21 02:49:40;;;;;;;3.40;1.90;;;;;;;10.01;78.15;100347.44;6190356;23;20001;-76
2022/06/21 02:52:22;;;;;;;2.65;1.60;;;;;;;9.94;78.40;100347.69;6189971;23;20001;-75
2022/06/21 02:54:52;;;;;;;2.38;1.50;;;;;;;9.88;78.00;100332.34;6189095;23;20028;-74
2022/06/21 02:57:26;;;;;;;2.33;1.50;;;;;;;9.88;78.05;100335.06;6189796;23;20001;-75
2022/06/21 02:59:54;;;;;;;2.75;1.58;;;;;;;9.89;78.61;100339.44;6164055;23;20039;-75
2022/06/21 03:02:26;;;;;;;2.25;1.58;;;;;;;9.85;79.11;100341.06;6191527;23;20009;-74
2022/06/21 03:04:55;;;;;;;5.07;1.85;;;;;;;9.79;79.45;100328.47;6189765;23;20008;-76
2022/06/21 03:07:55;;;;;;;4.47;2.05;;;;;;;9.74;79.32;100331.16;6190643;23;19997;-74
2022/06/21 03:10:33;;;;;;;2.45;1.40;;;;;;;9.66;79.69;100323.47;6165905;23;20066;-75
2022/06/21 03:13:08;;;;;;;5.13;1.77;;;;;;;9.70;80.09;100333.59;6188926;23;20001;-75
2022/06/21 03:15:36;;;;;;;2.85;1.77;;;;;;;9.66;79.63;100326.19;6190229;23;20005;-75
2022/06/21 03:18:06;;;;;;;7.35;2.20;;;;;;;9.59;79.62;100319.06;6162811;23;20005;-75
2022/06/21 03:20:33;;;;;;;4.10;1.67;;;;;;;9.61;79.61;100326.97;6188235;23;20084;-76
2022/06/21 03:23:01;;;;;;;3.85;1.73;;;;;;;9.46;79.60;100311.28;6160578;23;20012;-75
2022/06/21 03:25:51;;;;;;;2.55;1.73;;;;;;;9.47;79.79;100329.31;6189762;23;20105;-74
2022/06/21 03:28:46;;;;;;;2.05;1.40;;;;;;;9.46;80.32;100324.13;6163693;23;20006;-76
2022/06/21 03:31:23;;;;;;;2.45;1.40;;;;;;;9.45;79.51;100331.50;6163740;23;20028;-75
2022/06/21 03:33:55;;;;;;;1.75;1.38;;;;;;;9.38;80.10;100330.91;6190027;23;20004;-73
2022/06/21 03:36:33;;;;;;;2.28;1.20;;;;;;;9.37;79.88;100326.50;6161636;23;20004;-74
2022/06/21 03:39:11;;;;;;;2.53;1.15;;;;;;;9.48;79.66;100339.16;6161611;23;20001;-73
2022/06/21 03:41:45;;;;;;;2.00;1.13;;;;;;;9.49;79.92;100340.81;6188437;23;20436;-75
2022/06/21 03:44:23;;;;;;;2.65;1.58;;;;;;;9.53;79.66;100352.03;6165257;23;20036;-76
2022/06/21 03:46:55;;;;;;;5.90;2.15;;;;;;;9.52;80.00;100345.75;6163900;23;20057;-76
2022/06/21 03:49:49;;;;;;;2.40;1.45;;;;;;;9.53;80.09;100347.38;6150354;23;20329;-75
2022/06/21 03:52:47;;;;;;;1.92;1.20;;;;;;;9.52;79.95;100337.56;6190746;23;20548;-76
2022/06/21 03:55:25;;;;;;;3.65;1.67;;;;;;;9.52;80.03;100345.75;6138496;23;20008;-75
2022/06/21 03:58:33;;;;;;;;;;;;;;;;;;;;;
2022/06/21 04:01:36;;;;;;;1.70;1.10;;;;;;;9.52;79.30;100329.38;6188268;23;20032;-76
2022/06/21 04:04:19;;;;;;;1.40;1.30;;;;;;;9.54;79.69;100329.09;6191524;23;20093;-73
2022/06/21 04:06:55;;;;;;;4.05;1.30;;;;;;;9.58;79.10;100328.31;6162623;23;20012;-75
2022/06/21 04:10:08;;;;;;;2.08;1.20;;;;;;;9.53;79.04;100313.81;6189691;23;20758;-74
2022/06/21 04:12:58;;;;;;;;;;;;;;;;;;;;;
2022/06/21 04:16:02;;;;;;;2.35;1.08;;;;;;;9.76;79.37;100345.38;6190507;23;20380;-77
2022/06/21 04:18:36;;;;;;;1.63;1.48;;;;;;;9.75;78.71;100338.25;6163937;23;20001;-76
2022/06/21 04:21:44;;;;;;;;;;;;;;;;;;;;;
2022/06/21 04:24:22;;;;;;;2.78;1.35;;;;;;;10.15;77.68;100345.06;6153090;23;20029;-74
2022/06/21 04:26:51;;;;;;;1.75;1.10;;;;;;;10.34;77.34;100344.63;6189758;23;19997;-75
2022/06/21 04:29:23;;;;;;;3.35;1.48;;;;;;;10.54;76.50;100349.38;6189327;23;20077;-75
2022/06/21 04:32:04;;;;;;;2.67;1.40;;;;;;;10.72;75.85;100345.31;6189734;23;20001;-75
2022/06/21 04:35:12;;;;;;;1.33;1.08;;;;;;;10.88;75.82;100341.56;6189612;23;20001;-76
2022/06/21 04:37:53;;;;;;;1.63;1.08;;;;;;;10.87;75.90;100342.63;6162269;23;20088;-76
2022/06/21 04:40:45;;;;;;;3.10;1.20;;;;;;;10.93;75.57;100352.50;6163382;23;20063;-75
2022/06/21 04:43:56;;;;;;;3.97;1.55;;;;;;;10.94;75.89;100351.41;6162913;23;20016;-76
2022/06/21 04:46:54;;;;;;;1.98;1.40;;;;;;;10.93;76.12;100363.44;6146749;23;20066;-76
2022/06/21 04:49:37;;;;;;;2.05;1.10;;;;;;;10.95;75.78;100347.59;6148033;23;20086;-74
2022/06/21 04:52:52;;;;;;;1.50;1.40;;;;;;;11.14;75.35;100364.31;6162404;23;20008;-74
2022/06/21 04:55:24;;;;;;;2.95;1.13;;;;;;;11.17;75.58;100352.00;6144194;23;20008;-76
2022/06/21 04:57:52;;;;;;;1.80;1.20;;;;;;;11.28;75.45;100352.84;6187719;23;20075;-75
2022/06/21 05:00:20;;;;;;;2.78;1.40;;;;;;;11.46;75.49;100360.50;6187987;23;20328;-75
2022/06/21 05:02:52;;;;;;;1.65;1.15;;;;;;;11.46;75.46;100344.09;6160320;23;20005;-75
2022/06/21 05:05:26;;;;;;;1.25;1.15;;;;;;;11.63;75.42;100360.22;6187672;23;20008;-76
2022/06/21 05:08:04;;;;;;;5.63;1.60;;;;;;;11.73;75.41;100364.06;6190787;23;20001;-76
2022/06/21 05:10:41;;;;;;;4.53;1.45;;;;;;;11.81;75.06;100352.53;6164664;23;20021;-75
2022/06/21 05:13:27;;;;;;;1.83;1.25;;;;;;;11.83;75.03;100358.59;6189556;23;20025;-75
2022/06/21 05:15:56;;;;;;;2.78;1.10;;;;;;;11.84;74.47;100349.25;6189772;23;20032;-75
2022/06/21 05:18:35;;;;;;;2.10;1.30;;;;;;;11.92;74.42;100356.91;6178795;23;20001;-76
2022/06/21 05:21:14;;;;;;;1.73;1.20;;;;;;;11.96;74.25;100362.69;6188386;23;20048;-75
2022/06/21 05:23:40;;;;;;;3.35;1.60;;;;;;;11.98;74.02;100365.97;6164526;23;20444;-75
2022/06/21 05:26:43;;;;;;;1.20;1.10;;;;;;;12.01;73.42;100360.75;6186328;23;20011;-76
2022/06/21 05:29:38;;;;;;;2.83;1.15;;;;;;;12.10;73.50;100344.56;6158114;23;20013;-75
2022/06/21 05:32:12;;;;;;;2.90;1.42;;;;;;;12.23;73.49;100351.38;6180163;23;20005;-74
2022/06/21 05:34:44;;;;;;;1.67;1.27;;;;;;;12.27;73.28;100346.19;6160698;23;20376;-75
2022/06/21 05:37:37;;;;;;;1.50;1.00;;;;;;;12.36;72.99;100349.97;6188601;23;20059;-75
2022/06/21 05:40:26;;;;;;;1.42;1.20;;;;;;;12.37;73.26;100341.47;6185854;23;20036;-74
2022/06/21 05:42:52;;;;;;;1.48;1.10;;;;;;;12.46;72.76;100343.63;6188030;23;20093;-77
2022/06/21 05:45:52;;;;;;;0.98;0.88;;;;;;;12.59;72.18;100348.50;6186964;23;20024;-74
2022/06/21 05:48:23;;;;;;;2.80;1.30;;;;;;;12.59;72.20;100337.53;6182349;23;20321;-75
2022/06/21 05:50:54;;;;;;;3.17;1.25;;;;;;;12.64;72.10;100340.25;6162172;23;20048;-75
2022/06/21 05:53:29;;;;;;;1.20;1.10;;;;;;;12.79;72.15;100342.13;6160460;23;20092;-74
2022/06/21 05:55:56;;;;;;;2.25;1.10;;;;;;;12.86;71.62;100330.81;6161720;23;20033;-77
2022/06/21 05:58:37;;;;;;;4.53;1.40;;;;;;;13.04;71.48;100343.88;6137322;23;20487;-76
2022/06/21 06:01:07;;;;;;;1.92;1.20;;;;;;;13.15;71.16;100343.81;6186815;23;20040;-76
2022/06/21 06:03:40;;;;;;;2.90;1.33;;;;;;;13.14;71.13;100325.69;6161725;23;20026;-75
2022/06/21 06:06:11;;;;;;;2.00;1.42;;;;;;;13.31;70.95;100337.09;6160179;23;20001;-75
2022/06/21 06:08:47;;;;;;;1.20;1.08;;;;;;;13.43;70.16;100332.09;6186115;23;20024;-73
2022/06/21 06:11:18;;;;;;;1.70;1.23;;;;;;;13.58;70.41;100346.78;6160042;23;20013;-72
2022/06/21 06:13:44;;;;;;;2.10;1.20;;;;;;;13.65;69.93;100344.53;6186584;23;20023;-72
2022/06/21 06:16:21;;;;;;;2.97;1.13;;;;;;;13.69;70.18;100340.09;6160387;23;20012;-71
2022/06/21 06:18:53;;;;;;;4.18;1.50;;;;;;;13.68;69.98;100332.97;6160201;23;20447;-75
2022/06/21 06:21:26;;;;;;;5.80;1.67;;;;;;;13.82;69.40;100335.84;6185051;23;20005;-73
2022/06/21 06:24:00;;;;;;;5.38;1.60;;;;;;;13.91;68.68;100325.03;6159791;23;20016;-75
2022/06/21 06:26:37;;;;;;;3.50;1.93;;;;;;;14.02;69.11;100328.50;6189550;23;20028;-72
2022/06/21 06:29:05;;;;;;;2.58;1.85;;;;;;;14.08;68.52;100322.66;6160332;23;20005;-73
2022/06/21 06:31:57;;;;;;;1.88;1.30;;;;;;;14.21;68.70;100320.34;6159515;23;20420;-76
2022/06/21 06:34:28;;;;;;;2.58;1.45;;;;;;;14.34;68.27;100314.13;6148565;23;20015;-75
2022/06/21 06:37:00;;;;;;;2.25;1.30;;;;;;;14.54;68.21;100320.47;6189778;23;20397;-75
2022/06/21 06:39:51;;;;;;;2.72;2.10;;;;;;;14.70;68.05;100310.91;6163033;23;20009;-74
2022/06/21 06:42:31;;;;;;;2.00;1.08;;;;;;;14.87;67.58;100309.59;6137165;23;20077;-77
2022/06/21 06:45:05;;;;;;;2.10;1.52;;;;;;;15.07;66.95;100292.78;6165839;23;20009;-75
2022/06/21 06:47:34;;;;;;;;;;;;;;;15.51;66.58;100324.56;6190968;23;20416;-80
2022/06/21 06:50:11;;;;;;;3.33;1.50;;;;;;;15.52;65.83;100293.13;6165690;23;19908;-75
2022/06/21 06:52:42;;;;;;;5.93;2.28;;;;;;;15.64;65.35;100292.63;6191573;23;20032;-77
2022/06/21 06:55:14;;;;;;;2.33;1.50;;;;;;;15.87;65.13;100315.69;6187795;23;20009;-77
2022/06/21 06:57:55;;;;;;;2.92;1.20;;;;;;;15.99;64.87;100317.09;6162907;23;20015;-76
2022/06/21 07:00:30;;;;;;;2.10;1.70;;;;;;;16.06;64.66;100314.75;6164382;23;20673;-78
2022/06/21 07:03:27;;;;;;;1.40;1.08;;;;;;;16.30;64.52;100322.03;6187759;23;20008;-75
2022/06/21 07:06:25;;;;;;;3.47;1.40;;;;;;;16.49;64.17;100325.50;6186451;23;20005;-73
2022/06/21 07:09:19;;;;;;;6.97;1.60;;;;;;;16.68;63.47;100321.78;6163742;23;20031;-74
2022/06/21 07:12:15;;;;;;;5.43;1.73;;;;;;;16.79;63.00;100300.28;6160319;23;20059;-74
2022/06/21 07:14:47;;;;;;;4.07;1.73;;;;;;;16.89;62.89;100300.91;6187226;23;20391;-72
2022/06/21 07:17:37;;;;;;;;;;;;;;;;;;;;;
2022/06/21 07:20:13;;;;;;;2.45;1.80;;;;;;;17.10;62.29;100289.38;6186933;23;20091;-74
2022/06/21 07:22:39;;;;;;;1.98;1.38;;;;;;;17.39;61.86;100301.91;6187203;23;20001;-76
2022/06/21 07:25:21;;;;;;;2.80;1.33;;;;;;;17.60;61.39;100310.53;6160334;23;20371;-74
2022/06/21 07:27:55;;;;;;;1.75;1.02;;;;;;;17.75;61.00;100299.03;6189474;23;20383;-73
2022/06/21 07:30:32;;;;;;;3.60;1.47;;;;;;;17.94;60.82;100290.53;6189280;23;20009;-74
2022/06/21 07:33:12;;;;;;;1.38;1.20;;;;;;;18.28;60.61;100300.13;6186916;23;20016;-75
2022/06/21 07:35:47;;;;;;;1.50;1.00;;;;;;;18.59;59.65;100298.41;6158266;23;20013;-74
2022/06/21 07:38:27;;;;;;;2.58;1.48;;;;;;;19.07;58.47;100310.50;6159056;23;20005;-76
2022/06/21 07:41:04;;;;;;;3.58;1.58;;;;;;;19.29;57.86;100287.34;6159237;23;20001;-74
2022/06/21 07:43:46;;;;;;;3.13;1.50;;;;;;;19.80;56.90;100307.00;6182833;23;20021;-74
2022/06/21 07:46:17;;;;;;;3.08;1.63;;;;;;;20.05;55.66;100305.28;6184296;23;20084;-72
2022/06/21 07:49:22;;;;;;;;;;;;;;;;;;;;;
2022/06/21 07:52:01;;;;;;;5.13;2.15;;;;;;;20.79;54.00;100313.38;6176054;23;20076;-74
2022/06/21 07:54:47;;;;;;;5.50;2.60;;;;;;;20.85;52.98;100290.63;6185764;23;20097;-74
2022/06/21 07:57:34;;;;;;;6.53;2.25;;;;;;;21.23;51.91;100314.69;6160377;23;20004;-74
2022/06/21 08:00:07;;;;;;;2.53;1.83;;;;;;;21.40;51.51;100305.34;6186188;23;20084;-73
2022/06/21 08:08:37;;;;;;;2.37;1.30;;;;;;;21.60;50.60;100308.47;6187186;23;20044;-70
2022/06/21 08:11:18;;;;;;;2.03;1.30;;;;;;;21.62;50.89;100300.56;6156307;23;20530;-70
2022/06/21 08:13:44;;;;;;;4.20;1.50;;;;;;;21.58;50.63;100305.19;6184767;23;20431;-69
2022/06/21 08:16:15;;;;;;;4.35;1.48;;;;;;;21.37;50.69;100305.22;6134013;23;20017;-72
2022/06/21 08:19:18;;;;;;;1.90;1.08;;;;;;;21.37;50.86;100306.03;6184811;23;20856;-71
2022/06/21 08:21:51;;;;;;;2.90;1.92;;;;;;;21.10;51.13;100297.13;6158341;23;20012;-69
2022/06/21 08:24:57;;;;;;;7.68;2.55;;;;;;;20.78;51.03;100284.81;6186593;23;20411;-70
2022/06/21 08:27:35;;;;;;;4.20;1.67;;;;;;;20.91;50.88;100280.13;6160741;23;20039;-70
2022/06/21 08:30:14;;;;;;;2.72;1.48;;;;;;;21.14;50.17;100296.44;6185727;23;20001;-71
2022/06/21 08:33:00;;;;;;;3.00;1.42;;;;;;;21.36;50.10;100298.84;6159432;23;20005;-70
2022/06/21 08:35:31;;;;;;;4.03;1.55;;;;;;;21.50;49.56;100294.97;6184688;23;20009;-70
2022/06/21 08:38:17;;;;;;;2.35;1.05;;;;;;;21.59;49.21;100284.56;6185031;23;20024;-71
2022/06/21 08:40:59;;;;;;;1.38;0.85;;;;;;;21.73;49.20;100285.06;6158224;23;20762;-71
2022/06/21 08:43:34;;;;;;;5.22;1.58;;;;;;;21.86;48.88;100290.63;6159314;23;20028;-69
2022/06/21 08:46:05;;;;;;;2.75;1.45;;;;;;;21.93;48.61;100286.16;6184373;23;20071;-70
2022/06/21 08:48:58;;;;;;;1.65;0.90;;;;;;;21.96;48.55;100281.81;6184689;23;20409;-70
2022/06/21 08:51:42;;;;;;;3.03;1.27;;;;;;;22.03;48.27;100276.50;6183878;23;20417;-70
2022/06/21 08:54:12;;;;;;;3.42;1.45;;;;;;;21.95;47.65;100269.09;6158022;23;20331;-70
2022/06/21 08:57:02;;;;;;;7.15;2.38;;;;;;;21.73;46.74;100268.38;6159614;23;20027;-70
2022/06/21 08:59:53;;;;;;;2.72;1.20;;;;;;;21.79;47.55;100289.25;6185597;23;20079;-69
2022/06/21 09:02:44;;;;;;;7.50;1.67;;;;;;;21.69;47.36;100267.44;6183584;23;20001;-70
2022/06/21 09:05:31;;;;;;;4.25;1.27;;;;;;;21.76;47.33;100278.81;6160241;23;20012;-70
2022/06/21 09:08:28;;;;;;;3.33;1.10;;;;;;;21.92;47.16;100267.00;6185539;23;20032;-69
2022/06/21 09:11:26;;;;;;;3.55;1.10;;;;;;;21.96;46.94;100259.56;6157190;23;20005;-71
2022/06/21 09:14:29;;;;;;;2.75;1.38;;;;;;;21.99;46.81;100250.53;6186165;23;20027;-70
2022/06/21 09:17:33;;;;;;;3.88;1.55;;;;;;;22.23;46.46;100257.25;6187297;23;20084;-70
2022/06/21 09:20:23;;;;;;;2.70;1.30;;;;;;;22.72;45.91;100257.22;6155715;23;20012;-69
2022/06/21 09:23:07;;;;;;;2.63;1.10;;;;;;;23.10;44.77;100250.38;6186204;23;20238;-71
2022/06/21 09:25:37;;;;;;;1.63;1.08;;;;;;;23.59;44.36;100256.84;6183672;23;20363;-70
2022/06/21 09:28:33;;;;;;;4.00;1.40;;;;;;;24.02;43.56;100255.13;6184909;23;20001;-71
2022/06/21 09:31:05;;;;;;;20.65;2.20;;;;;;;23.97;41.57;100235.88;6184723;23;20012;-70
2022/06/21 09:33:46;;;;;;;4.75;1.55;;;;;;;24.39;41.24;100246.44;6162457;23;20319;-71
2022/06/21 09:36:52;;;;;;;;;;;;;;;;;;;;;
2022/06/21 09:39:26;;;;;;;3.47;1.08;;;;;;;25.23;40.56;100245.03;6185485;23;20051;-71
2022/06/21 09:42:31;;;;;;;3.55;1.23;;;;;;;25.59;40.25;100240.09;6185689;23;20047;-71
2022/06/21 09:45:26;;;;;;;2.10;1.15;;;;;;;26.19;39.63;100232.31;6143277;23;20401;-71
2022/06/21 09:48:03;;;;;;;5.22;1.20;;;;;;;26.58;38.55;100243.28;6184592;23;20013;-71
2022/06/21 09:50:32;;;;;;;4.13;1.48;;;;;;;26.91;37.62;100242.53;6158579;23;20009;-70
2022/06/21 09:53:06;;;;;;;6.00;1.83;;;;;;;27.16;37.32;100233.56;6184475;23;20004;-70
2022/06/21 09:55:46;;;;;;;;;;;;;;;27.62;35.76;100249.31;6159239;23;20009;-71
2022/06/21 09:58:32;;;;;;;7.15;1.67;;;;;;;27.24;36.06;100240.09;6160315;23;20018;-71
2022/06/21 10:01:18;;;;;;;8.55;2.30;;;;;;;27.12;33.69;100238.34;6184845;23;19997;-71
2022/06/21 10:04:05;;;;;;;3.65;1.50;;;;;;;26.96;35.22;100222.53;6160607;23;20005;-70
2022/06/21 10:06:57;;;;;;;6.50;1.85;;;;;;;27.62;35.11;100216.41;6187269;23;20060;-69
2022/06/21 10:09:22;;;;;;;3.28;1.45;;;;;;;27.99;33.82;100232.41;6186558;23;20086;-70
2022/06/21 10:12:03;;;;;;;7.65;2.38;;;;;;;27.99;32.38;100229.59;6186724;23;20004;-71
2022/06/21 10:15:05;;;;;;;6.00;1.45;;;;;;;28.34;33.29;100233.03;6186865;23;20032;-70
2022/06/21 10:17:46;;;;;;;5.75;1.50;;;;;;;29.18;32.13;100237.84;6160072;23;20044;-70
2022/06/21 10:20:42;;;;;;;3.63;1.50;;;;;;;29.68;31.73;100245.59;6184341;23;20467;-70
2022/06/21 10:23:07;;;;;;;7.88;1.67;;;;;;;29.80;31.62;100238.75;6188462;23;20016;-70
2022/06/21 10:25:42;;;;;;;2.00;0.93;;;;;;;30.02;30.96;100246.03;6187217;23;20005;-70
2022/06/21 10:28:10;;;;;;;3.53;1.35;;;;;;;29.93;29.66;100240.81;6189130;23;20001;-70
2022/06/21 10:30:59;;;;;;;6.80;1.77;;;;;;;29.66;28.91;100240.38;6185542;23;20008;-72
2022/06/21 10:33:47;;;;;;;2.83;1.15;;;;;;;29.91;29.35;100248.06;6176010;23;20070;-71
2022/06/21 10:36:31;;;;;;;2.40;0.90;;;;;;;30.39;29.30;100239.13;6187944;23;20012;-70
2022/06/21 10:39:15;;;;;;;;;;;;;;;30.86;29.08;100241.03;6187506;23;20013;-70
2022/06/21 10:45:38;;;;;;;3.67;1.05;;;;;;;31.69;28.00;100263.97;6186027;23;20223;-71
2022/06/21 10:48:13;;;;;;;4.13;1.33;;;;;;;31.89;26.86;100252.91;6186486;23;20070;-72
2022/06/21 10:51:11;;;;;;;2.00;1.00;;;;;;;31.72;26.73;100237.72;6159305;23;20005;-71
2022/06/21 10:53:45;;;;;;;5.05;1.35;;;;;;;31.88;27.01;100245.66;6155776;23;20016;-70
2022/06/21 10:59:09;;;;;;;3.58;1.30;;;;;;;31.29;27.08;100252.09;6184743;23;20063;-71
2022/06/21 11:01:49;;;;;;;4.05;1.35;;;;;;;31.58;27.45;100232.97;6187698;23;20035;-71
2022/06/21 11:04:28;;;;;;;2.38;1.05;;;;;;;32.10;26.69;100251.91;6161605;23;20020;-71
2022/06/21 11:06:59;;;;;;;2.38;1.45;;;;;;;32.44;26.78;100247.56;6163677;23;20013;-71
2022/06/21 11:09:43;;;;;;;2.70;1.05;;;;;;;32.97;26.42;100246.16;6162248;23;20016;-71
2022/06/21 11:15:42;;;;;;;3.60;1.40;;;;;;;33.81;25.81;100240.91;6186383;23;20012;-71
2022/06/21 11:18:10;;;;;;;3.22;1.27;;;;;;;34.58;25.36;100250.47;6185394;23;20032;-71
2022/06/21 11:21:18;;;;;;;4.40;1.40;;;;;;;35.89;23.14;100246.34;6160878;23;20004;-71
2022/06/21 11:24:10;;;;;;;4.07;1.40;;;;;;;36.88;20.94;100239.63;6110488;23;20059;-70
2022/06/21 11:26:44;;;;;;;4.28;1.27;;;;;;;37.14;20.50;100249.00;6159615;23;20309;-71
2022/06/21 11:29:36;;;;;;;2.42;0.90;;;;;;;39.79;19.67;100255.03;6187407;23;20004;-71
2022/06/21 11:32:45;;;;;;;3.30;1.10;;;;;;;41.20;17.69;100250.84;6189062;23;20024;-70
2022/06/21 11:38:51;;;;;;;4.55;1.50;;;;;;;44.74;14.26;100244.44;6170865;23;20515;-71
2022/06/21 11:44:23;;;;;;;2.97;1.40;;;;;;;42.51;15.42;100241.72;6186508;23;20071;-70
2022/06/21 11:46:57;;;;;;;2.40;0.98;;;;;;;45.02;14.25;100235.25;6185814;23;20001;-72
2022/06/21 11:49:39;;;;;;;1.70;1.00;;;;;;;46.87;12.68;100236.63;6185755;23;20002;-70
2022/06/21 11:52:13;;;;;;;2.40;0.90;;;;;;;48.50;11.72;100239.59;6184642;23;20336;-71
2022/06/21 11:54:51;;;;;;;2.00;0.57;;;;;;;47.22;12.41;100220.84;6186910;23;20033;-71
2022/06/21 11:58:04;;;;;;;1.95;1.05;;;;;;;48.47;11.82;100237.78;6158614;23;20063;-71
2022/06/21 12:08:33;;;;;;;;;;;;;;;;;;;;;
2022/06/21 12:11:38;;;;;;;1.95;0.93;;;;;;;50.33;10.17;100211.81;6154527;23;20474;-71
2022/06/21 12:14:51;;;;;;;3.83;0.93;;;;;;;48.70;10.18;100215.19;6143446;23;20060;-72
2022/06/21 12:18:11;;;;;;;3.92;1.38;;;;;;;44.72;12.27;100195.94;6162300;23;20024;-72
2022/06/21 12:21:24;;;;;;;;;;;;;;;;;;;;;
2022/06/21 12:24:30;;;;;;;;;;;;;;;;;;;;;
2022/06/21 12:27:15;;;;;;;2.42;1.20;;;;;;;45.38;12.07;100184.63;6181134;23;20391;-72
2022/06/21 12:29:46;;;;;;;1.85;0.98;;;;;;;47.14;11.59;100185.88;6160262;23;20009;-71
2022/06/21 12:32:31;;;;;;;;;;;;;;;;;;;;;
2022/06/21 12:35:26;;;;;;;2.45;0.95;;;;;;;50.05;9.59;100166.50;6185529;23;20088;-71
2022/06/21 12:38:41;;;;;;;4.82;1.83;;;;;;;50.53;8.16;100168.94;6158954;23;20443;-71
2022/06/21 12:44:30;;;;;;;1.60;0.75;;;;;;;52.28;7.99;100180.06;6162702;23;20024;-72
2022/06/21 12:47:32;;;;;;;1.95;0.90;;;;;;;53.11;8.00;100177.69;6161179;23;20005;-72
2022/06/21 12:50:16;;;;;;;1.52;0.70;;;;;;;53.52;7.84;100170.16;6183875;23;20005;-72
2022/06/21 12:52:57;;;;;;;1.38;0.70;;;;;;;54.29;7.32;100152.09;6158509;23;20071;-71
2022/06/21 12:55:49;;;;;;;3.35;1.17;;;;;;;54.72;6.92;100164.25;6159279;23;20331;-72
2022/06/21 12:58:23;;;;;;;1.30;0.60;;;;;;;53.49;7.36;100158.84;6181675;23;20482;-72
2022/06/21 13:01:24;;;;;;;2.47;0.77;;;;;;;54.57;6.96;100156.25;6156305;23;20005;-72
2022/06/21 13:04:27;;;;;;;2.22;1.05;;;;;;;55.40;6.26;100155.97;6183960;23;20059;-72
2022/06/21 13:07:02;;;;;;;2.50;0.93;;;;;;;56.62;5.92;100156.66;6159854;23;20332;-71
2022/06/21 13:09:33;;;;;;;1.25;0.52;;;;;;;58.06;5.25;100152.47;6185112;23;20008;-71
2022/06/21 13:12:27;;;;;;;2.17;0.73;;;;;;;57.91;4.35;100138.78;6185628;23;20004;-72
2022/06/21 13:15:34;;;;;;;3.28;0.98;;;;;;;57.80;4.93;100143.03;6158985;23;20031;-70
2022/06/21 13:18:17;;;;;;;3.40;0.82;;;;;;;57.59;5.25;100129.59;6184549;23;20041;-71
2022/06/21 13:21:04;;;;;;;1.00;0.60;;;;;;;56.90;4.94;100113.56;6183373;23;20009;-71